sensor_id;sensor_type;location;lat;lon;timestamp;P1;durP1;ratioP1;P2;durP2;ratioP2
43114;SDS011;28727;50.068;14.452;2023-04-24T00:02:07;15.25;;;8.43;;
43114;SDS011;28727;50.068;14.452;2023-04-24T00:04:42;13.00;;;8.25;;
43114;SDS011;28727;50.068;14.452;2023-04-24T00:07:17;15.15;;;8.80;;
43114;SDS011;28727;50.068;14.452;2023-04-24T00:09:51;12.50;;;8.40;;
43114;SDS011;28727;50.068;14.452;2023-04-24T00:12:23;12.77;;;8.13;;
43114;SDS011;28727;50.068;14.452;2023-04-24T00:14:55;13.18;;;8.23;;
43114;SDS011;28727;50.068;14.452;2023-04-24T00:17:27;16.88;;;8.10;;
43114;SDS011;28727;50.068;14.452;2023-04-24T00:22:38;13.35;;;7.53;;
43114;SDS011;28727;50.068;14.452;2023-04-24T00:25:10;13.15;;;9.02;;
43114;SDS011;28727;50.068;14.452;2023-04-24T00:27:41;13.70;;;8.30;;
43114;SDS011;28727;50.068;14.452;2023-04-24T00:30:13;13.27;;;8.25;;
43114;SDS011;28727;50.068;14.452;2023-04-24T00:32:45;12.18;;;8.10;;
43114;SDS011;28727;50.068;14.452;2023-04-24T00:35:18;15.45;;;8.80;;
43114;SDS011;28727;50.068;14.452;2023-04-24T00:37:51;11.32;;;8.13;;
43114;SDS011;28727;50.068;14.452;2023-04-24T00:40:23;13.00;;;7.78;;
43114;SDS011;28727;50.068;14.452;2023-04-24T00:42:55;15.15;;;7.90;;
43114;SDS011;28727;50.068;14.452;2023-04-24T00:45:27;11.90;;;8.07;;
43114;SDS011;28727;50.068;14.452;2023-04-24T00:47:58;12.60;;;8.60;;
43114;SDS011;28727;50.068;14.452;2023-04-24T00:50:32;9.65;;;7.28;;
43114;SDS011;28727;50.068;14.452;2023-04-24T00:53:04;13.93;;;8.25;;
43114;SDS011;28727;50.068;14.452;2023-04-24T00:55:36;13.40;;;8.55;;
43114;SDS011;28727;50.068;14.452;2023-04-24T00:58:08;12.40;;;8.45;;
43114;SDS011;28727;50.068;14.452;2023-04-24T01:00:40;13.50;;;7.80;;
43114;SDS011;28727;50.068;14.452;2023-04-24T01:03:12;10.63;;;7.47;;
43114;SDS011;28727;50.068;14.452;2023-04-24T01:05:45;10.82;;;7.40;;
43114;SDS011;28727;50.068;14.452;2023-04-24T01:08:19;10.57;;;7.10;;
43114;SDS011;28727;50.068;14.452;2023-04-24T01:13:29;12.48;;;6.78;;
43114;SDS011;28727;50.068;14.452;2023-04-24T01:16:01;10.32;;;6.10;;
43114;SDS011;28727;50.068;14.452;2023-04-24T01:18:32;9.13;;;5.75;;
43114;SDS011;28727;50.068;14.452;2023-04-24T01:21:07;8.20;;;5.30;;
43114;SDS011;28727;50.068;14.452;2023-04-24T01:23:40;8.45;;;5.28;;
43114;SDS011;28727;50.068;14.452;2023-04-24T01:26:13;7.25;;;4.75;;
43114;SDS011;28727;50.068;14.452;2023-04-24T01:28:46;7.25;;;4.40;;
43114;SDS011;28727;50.068;14.452;2023-04-24T01:31:19;7.57;;;4.30;;
43114;SDS011;28727;50.068;14.452;2023-04-24T01:33:51;5.95;;;3.70;;
43114;SDS011;28727;50.068;14.452;2023-04-24T01:36:27;5.28;;;3.60;;
43114;SDS011;28727;50.068;14.452;2023-04-24T01:39:00;7.00;;;3.58;;
43114;SDS011;28727;50.068;14.452;2023-04-24T01:41:32;6.30;;;3.50;;
43114;SDS011;28727;50.068;14.452;2023-04-24T01:44:04;4.45;;;2.88;;
43114;SDS011;28727;50.068;14.452;2023-04-24T01:46:36;4.97;;;2.88;;
43114;SDS011;28727;50.068;14.452;2023-04-24T01:49:09;6.93;;;2.80;;
43114;SDS011;28727;50.068;14.452;2023-04-24T01:51:42;4.38;;;2.50;;
43114;SDS011;28727;50.068;14.452;2023-04-24T01:54:14;4.05;;;2.25;;
43114;SDS011;28727;50.068;14.452;2023-04-24T01:56:45;3.13;;;1.77;;
43114;SDS011;28727;50.068;14.452;2023-04-24T01:59:17;2.97;;;2.08;;
43114;SDS011;28727;50.068;14.452;2023-04-24T02:01:52;4.22;;;2.10;;
43114;SDS011;28727;50.068;14.452;2023-04-24T02:04:24;2.53;;;1.60;;
43114;SDS011;28727;50.068;14.452;2023-04-24T02:06:57;4.75;;;1.52;;
43114;SDS011;28727;50.068;14.452;2023-04-24T02:09:29;2.63;;;1.63;;
43114;SDS011;28727;50.068;14.452;2023-04-24T02:12:01;3.70;;;1.75;;
43114;SDS011;28727;50.068;14.452;2023-04-24T02:14:33;2.97;;;1.70;;
43114;SDS011;28727;50.068;14.452;2023-04-24T02:17:04;2.95;;;1.70;;
43114;SDS011;28727;50.068;14.452;2023-04-24T02:19:36;2.92;;;1.63;;
43114;SDS011;28727;50.068;14.452;2023-04-24T02:22:08;3.05;;;1.40;;
43114;SDS011;28727;50.068;14.452;2023-04-24T02:24:40;3.88;;;1.70;;
43114;SDS011;28727;50.068;14.452;2023-04-24T02:27:11;2.63;;;1.30;;
43114;SDS011;28727;50.068;14.452;2023-04-24T02:29:45;2.35;;;1.40;;
43114;SDS011;28727;50.068;14.452;2023-04-24T02:32:16;4.78;;;1.52;;
43114;SDS011;28727;50.068;14.452;2023-04-24T02:34:48;3.42;;;1.70;;
43114;SDS011;28727;50.068;14.452;2023-04-24T02:37:20;2.58;;;1.50;;
43114;SDS011;28727;50.068;14.452;2023-04-24T02:39:52;3.13;;;1.50;;
43114;SDS011;28727;50.068;14.452;2023-04-24T02:42:23;3.03;;;1.40;;
43114;SDS011;28727;50.068;14.452;2023-04-24T02:44:55;3.35;;;1.60;;
43114;SDS011;28727;50.068;14.452;2023-04-24T02:47:27;3.75;;;1.60;;
43114;SDS011;28727;50.068;14.452;2023-04-24T02:49:59;2.50;;;1.42;;
43114;SDS011;28727;50.068;14.452;2023-04-24T02:52:30;3.85;;;1.77;;
43114;SDS011;28727;50.068;14.452;2023-04-24T02:55:02;2.13;;;1.45;;
43114;SDS011;28727;50.068;14.452;2023-04-24T02:57:34;2.17;;;1.50;;
43114;SDS011;28727;50.068;14.452;2023-04-24T03:00:06;1.73;;;1.30;;
43114;SDS011;28727;50.068;14.452;2023-04-24T03:02:38;3.45;;;1.50;;
43114;SDS011;28727;50.068;14.452;2023-04-24T03:05:10;2.25;;;1.42;;
43114;SDS011;28727;50.068;14.452;2023-04-24T03:07:43;2.80;;;1.63;;
43114;SDS011;28727;50.068;14.452;2023-04-24T03:10:15;2.60;;;1.50;;
43114;SDS011;28727;50.068;14.452;2023-04-24T03:12:46;2.10;;;1.27;;
43114;SDS011;28727;50.068;14.452;2023-04-24T03:15:18;2.88;;;1.60;;
43114;SDS011;28727;50.068;14.452;2023-04-24T03:17:50;3.88;;;1.70;;
43114;SDS011;28727;50.068;14.452;2023-04-24T03:20:23;2.38;;;1.40;;
43114;SDS011;28727;50.068;14.452;2023-04-24T03:22:55;4.00;;;2.00;;
43114;SDS011;28727;50.068;14.452;2023-04-24T03:25:28;1.92;;;1.50;;
43114;SDS011;28727;50.068;14.452;2023-04-24T03:28:03;3.65;;;1.70;;
43114;SDS011;28727;50.068;14.452;2023-04-24T03:30:53;4.25;;;1.70;;
43114;SDS011;28727;50.068;14.452;2023-04-24T03:33:27;3.80;;;1.70;;
43114;SDS011;28727;50.068;14.452;2023-04-24T03:36:04;3.00;;;1.70;;
43114;SDS011;28727;50.068;14.452;2023-04-24T03:38:43;2.42;;;1.55;;
43114;SDS011;28727;50.068;14.452;2023-04-24T03:41:30;2.53;;;1.35;;
43114;SDS011;28727;50.068;14.452;2023-04-24T03:44:08;2.47;;;1.33;;
43114;SDS011;28727;50.068;14.452;2023-04-24T03:46:40;4.00;;;1.75;;
43114;SDS011;28727;50.068;14.452;2023-04-24T03:49:13;3.95;;;1.65;;
43114;SDS011;28727;50.068;14.452;2023-04-24T03:51:47;3.05;;;1.70;;
43114;SDS011;28727;50.068;14.452;2023-04-24T03:54:26;2.90;;;1.52;;
43114;SDS011;28727;50.068;14.452;2023-04-24T03:56:58;3.28;;;2.10;;
43114;SDS011;28727;50.068;14.452;2023-04-24T03:59:32;4.95;;;1.77;;
43114;SDS011;28727;50.068;14.452;2023-04-24T04:02:17;3.70;;;2.00;;
43114;SDS011;28727;50.068;14.452;2023-04-24T04:04:50;3.60;;;1.83;;
43114;SDS011;28727;50.068;14.452;2023-04-24T04:07:22;3.17;;;1.60;;
43114;SDS011;28727;50.068;14.452;2023-04-24T04:09:54;4.72;;;1.90;;
43114;SDS011;28727;50.068;14.452;2023-04-24T04:12:27;3.40;;;1.90;;
43114;SDS011;28727;50.068;14.452;2023-04-24T04:14:59;2.92;;;2.13;;
43114;SDS011;28727;50.068;14.452;2023-04-24T04:17:31;5.80;;;2.17;;
43114;SDS011;28727;50.068;14.452;2023-04-24T04:20:09;3.55;;;2.20;;
43114;SDS011;28727;50.068;14.452;2023-04-24T04:22:43;5.90;;;2.20;;
43114;SDS011;28727;50.068;14.452;2023-04-24T04:25:20;5.97;;;2.75;;
43114;SDS011;28727;50.068;14.452;2023-04-24T04:27:52;5.22;;;2.60;;
43114;SDS011;28727;50.068;14.452;2023-04-24T04:30:25;5.82;;;2.40;;
43114;SDS011;28727;50.068;14.452;2023-04-24T04:33:07;3.17;;;2.10;;
43114;SDS011;28727;50.068;14.452;2023-04-24T04:35:40;3.33;;;2.22;;
43114;SDS011;28727;50.068;14.452;2023-04-24T04:38:13;4.18;;;2.15;;
43114;SDS011;28727;50.068;14.452;2023-04-24T04:40:50;6.63;;;3.20;;
43114;SDS011;28727;50.068;14.452;2023-04-24T04:43:24;4.82;;;2.28;;
43114;SDS011;28727;50.068;14.452;2023-04-24T04:45:58;6.38;;;2.10;;
43114;SDS011;28727;50.068;14.452;2023-04-24T04:48:34;5.43;;;1.90;;
43114;SDS011;28727;50.068;14.452;2023-04-24T04:51:09;2.75;;;1.70;;
43114;SDS011;28727;50.068;14.452;2023-04-24T04:53:41;3.15;;;2.00;;
43114;SDS011;28727;50.068;14.452;2023-04-24T04:56:13;4.38;;;1.90;;
43114;SDS011;28727;50.068;14.452;2023-04-24T04:58:48;3.25;;;2.17;;
43114;SDS011;28727;50.068;14.452;2023-04-24T05:01:21;3.90;;;1.90;;
43114;SDS011;28727;50.068;14.452;2023-04-24T05:03:54;4.20;;;2.13;;
43114;SDS011;28727;50.068;14.452;2023-04-24T05:06:26;2.28;;;1.60;;
43114;SDS011;28727;50.068;14.452;2023-04-24T05:08:59;4.50;;;1.90;;
43114;SDS011;28727;50.068;14.452;2023-04-24T05:11:47;4.55;;;2.00;;
43114;SDS011;28727;50.068;14.452;2023-04-24T05:14:20;3.97;;;2.00;;
43114;SDS011;28727;50.068;14.452;2023-04-24T05:16:54;3.03;;;1.88;;
43114;SDS011;28727;50.068;14.452;2023-04-24T05:22:00;2.78;;;1.83;;
43114;SDS011;28727;50.068;14.452;2023-04-24T05:24:36;3.17;;;1.92;;
43114;SDS011;28727;50.068;14.452;2023-04-24T05:27:34;3.75;;;1.90;;
43114;SDS011;28727;50.068;14.452;2023-04-24T05:30:11;6.60;;;2.10;;
43114;SDS011;28727;50.068;14.452;2023-04-24T05:32:43;5.57;;;2.05;;
43114;SDS011;28727;50.068;14.452;2023-04-24T05:35:17;6.00;;;2.00;;
43114;SDS011;28727;50.068;14.452;2023-04-24T05:37:50;6.30;;;2.00;;
43114;SDS011;28727;50.068;14.452;2023-04-24T05:40:22;4.50;;;1.98;;
43114;SDS011;28727;50.068;14.452;2023-04-24T05:42:54;4.13;;;1.98;;
43114;SDS011;28727;50.068;14.452;2023-04-24T05:45:28;3.30;;;2.05;;
43114;SDS011;28727;50.068;14.452;2023-04-24T05:48:02;5.15;;;2.58;;
43114;SDS011;28727;50.068;14.452;2023-04-24T05:50:36;3.40;;;2.10;;
43114;SDS011;28727;50.068;14.452;2023-04-24T05:53:08;3.35;;;2.00;;
43114;SDS011;28727;50.068;14.452;2023-04-24T05:55:42;3.38;;;2.17;;
43114;SDS011;28727;50.068;14.452;2023-04-24T05:58:13;5.22;;;2.10;;
43114;SDS011;28727;50.068;14.452;2023-04-24T06:00:46;5.25;;;2.45;;
43114;SDS011;28727;50.068;14.452;2023-04-24T06:03:18;3.75;;;2.20;;
43114;SDS011;28727;50.068;14.452;2023-04-24T06:05:52;3.30;;;2.13;;
43114;SDS011;28727;50.068;14.452;2023-04-24T06:08:25;5.28;;;2.10;;
43114;SDS011;28727;50.068;14.452;2023-04-24T06:10:57;4.03;;;2.28;;
43114;SDS011;28727;50.068;14.452;2023-04-24T06:13:29;11.90;;;3.40;;
43114;SDS011;28727;50.068;14.452;2023-04-24T06:16:24;8.77;;;2.42;;
43114;SDS011;28727;50.068;14.452;2023-04-24T06:19:03;7.20;;;2.70;;
43114;SDS011;28727;50.068;14.452;2023-04-24T06:21:35;4.60;;;3.10;;
43114;SDS011;28727;50.068;14.452;2023-04-24T06:24:07;6.65;;;2.35;;
43114;SDS011;28727;50.068;14.452;2023-04-24T06:26:39;4.47;;;2.40;;
43114;SDS011;28727;50.068;14.452;2023-04-24T06:29:15;7.47;;;2.55;;
43114;SDS011;28727;50.068;14.452;2023-04-24T06:31:46;8.68;;;2.70;;
43114;SDS011;28727;50.068;14.452;2023-04-24T06:34:18;6.80;;;2.70;;
43114;SDS011;28727;50.068;14.452;2023-04-24T06:36:50;7.55;;;2.70;;
43114;SDS011;28727;50.068;14.452;2023-04-24T06:39:22;4.85;;;2.75;;
43114;SDS011;28727;50.068;14.452;2023-04-24T06:41:54;8.07;;;2.55;;
43114;SDS011;28727;50.068;14.452;2023-04-24T06:44:27;9.50;;;3.97;;
43114;SDS011;28727;50.068;14.452;2023-04-24T06:46:59;4.22;;;2.40;;
43114;SDS011;28727;50.068;14.452;2023-04-24T06:49:31;4.00;;;2.60;;
43114;SDS011;28727;50.068;14.452;2023-04-24T06:52:03;8.60;;;3.20;;
43114;SDS011;28727;50.068;14.452;2023-04-24T06:54:35;6.70;;;3.63;;
43114;SDS011;28727;50.068;14.452;2023-04-24T06:57:07;3.85;;;2.90;;
43114;SDS011;28727;50.068;14.452;2023-04-24T07:02:13;4.70;;;2.80;;
43114;SDS011;28727;50.068;14.452;2023-04-24T07:04:45;7.25;;;2.75;;
43114;SDS011;28727;50.068;14.452;2023-04-24T07:07:18;6.15;;;2.80;;
43114;SDS011;28727;50.068;14.452;2023-04-24T07:09:50;14.70;;;3.78;;
43114;SDS011;28727;50.068;14.452;2023-04-24T07:12:22;5.22;;;2.80;;
43114;SDS011;28727;50.068;14.452;2023-04-24T07:14:54;7.40;;;3.17;;
43114;SDS011;28727;50.068;14.452;2023-04-24T07:17:25;11.65;;;4.65;;
43114;SDS011;28727;50.068;14.452;2023-04-24T07:19:57;9.05;;;4.10;;
43114;SDS011;28727;50.068;14.452;2023-04-24T07:22:29;8.40;;;3.58;;
43114;SDS011;28727;50.068;14.452;2023-04-24T07:25:01;8.18;;;3.53;;
43114;SDS011;28727;50.068;14.452;2023-04-24T07:27:34;5.72;;;3.40;;
43114;SDS011;28727;50.068;14.452;2023-04-24T07:30:09;6.78;;;3.35;;
43114;SDS011;28727;50.068;14.452;2023-04-24T07:32:41;8.82;;;3.53;;
43114;SDS011;28727;50.068;14.452;2023-04-24T07:35:13;7.18;;;3.47;;
43114;SDS011;28727;50.068;14.452;2023-04-24T07:37:48;5.28;;;3.25;;
43114;SDS011;28727;50.068;14.452;2023-04-24T07:40:20;5.70;;;3.28;;
43114;SDS011;28727;50.068;14.452;2023-04-24T07:42:52;4.20;;;2.92;;
43114;SDS011;28727;50.068;14.452;2023-04-24T07:45:23;5.60;;;2.72;;
43114;SDS011;28727;50.068;14.452;2023-04-24T07:47:57;7.80;;;2.53;;
43114;SDS011;28727;50.068;14.452;2023-04-24T07:50:29;5.20;;;2.30;;
43114;SDS011;28727;50.068;14.452;2023-04-24T07:53:01;4.82;;;2.25;;
43114;SDS011;28727;50.068;14.452;2023-04-24T07:55:33;5.57;;;2.50;;
43114;SDS011;28727;50.068;14.452;2023-04-24T07:58:04;5.05;;;2.88;;
43114;SDS011;28727;50.068;14.452;2023-04-24T08:00:36;6.60;;;2.50;;
43114;SDS011;28727;50.068;14.452;2023-04-24T08:03:08;4.68;;;2.40;;
43114;SDS011;28727;50.068;14.452;2023-04-24T08:05:40;4.07;;;2.63;;
43114;SDS011;28727;50.068;14.452;2023-04-24T08:08:13;3.97;;;2.60;;
43114;SDS011;28727;50.068;14.452;2023-04-24T08:10:45;6.25;;;2.40;;
43114;SDS011;28727;50.068;14.452;2023-04-24T08:13:16;4.03;;;2.75;;
43114;SDS011;28727;50.068;14.452;2023-04-24T08:15:48;4.82;;;2.75;;
43114;SDS011;28727;50.068;14.452;2023-04-24T08:18:20;4.95;;;2.70;;
43114;SDS011;28727;50.068;14.452;2023-04-24T08:20:52;7.53;;;2.67;;
43114;SDS011;28727;50.068;14.452;2023-04-24T08:23:24;4.95;;;2.45;;
43114;SDS011;28727;50.068;14.452;2023-04-24T08:25:56;5.53;;;2.33;;
43114;SDS011;28727;50.068;14.452;2023-04-24T08:28:29;4.10;;;2.22;;
43114;SDS011;28727;50.068;14.452;2023-04-24T08:31:00;3.97;;;2.50;;
43114;SDS011;28727;50.068;14.452;2023-04-24T08:33:32;3.80;;;2.50;;
43114;SDS011;28727;50.068;14.452;2023-04-24T08:36:06;4.43;;;2.30;;
43114;SDS011;28727;50.068;14.452;2023-04-24T08:38:38;4.05;;;2.72;;
43114;SDS011;28727;50.068;14.452;2023-04-24T08:41:14;7.05;;;2.25;;
43114;SDS011;28727;50.068;14.452;2023-04-24T08:43:47;5.07;;;2.13;;
43114;SDS011;28727;50.068;14.452;2023-04-24T08:46:20;5.25;;;2.00;;
43114;SDS011;28727;50.068;14.452;2023-04-24T08:48:53;3.80;;;2.17;;
43114;SDS011;28727;50.068;14.452;2023-04-24T08:51:26;3.67;;;1.90;;
43114;SDS011;28727;50.068;14.452;2023-04-24T08:53:57;4.07;;;2.40;;
43114;SDS011;28727;50.068;14.452;2023-04-24T08:56:29;4.80;;;2.83;;
43114;SDS011;28727;50.068;14.452;2023-04-24T08:59:05;4.47;;;2.90;;
43114;SDS011;28727;50.068;14.452;2023-04-24T09:01:38;4.25;;;2.88;;
43114;SDS011;28727;50.068;14.452;2023-04-24T09:04:11;3.83;;;2.90;;
43114;SDS011;28727;50.068;14.452;2023-04-24T09:06:47;7.63;;;3.80;;
43114;SDS011;28727;50.068;14.452;2023-04-24T09:09:20;5.00;;;3.33;;
43114;SDS011;28727;50.068;14.452;2023-04-24T09:11:53;9.25;;;4.57;;
43114;SDS011;28727;50.068;14.452;2023-04-24T09:14:27;6.68;;;4.13;;
43114;SDS011;28727;50.068;14.452;2023-04-24T09:16:59;6.30;;;4.13;;
43114;SDS011;28727;50.068;14.452;2023-04-24T09:19:31;6.72;;;4.43;;
43114;SDS011;28727;50.068;14.452;2023-04-24T09:22:06;6.72;;;3.80;;
43114;SDS011;28727;50.068;14.452;2023-04-24T09:24:39;5.88;;;4.13;;
43114;SDS011;28727;50.068;14.452;2023-04-24T09:27:10;8.55;;;4.65;;
43114;SDS011;28727;50.068;14.452;2023-04-24T09:29:54;6.88;;;4.50;;
43114;SDS011;28727;50.068;14.452;2023-04-24T09:32:26;7.78;;;4.32;;
43114;SDS011;28727;50.068;14.452;2023-04-24T09:35:07;10.23;;;4.70;;
43114;SDS011;28727;50.068;14.452;2023-04-24T09:37:46;6.28;;;4.53;;
43114;SDS011;28727;50.068;14.452;2023-04-24T09:40:21;5.07;;;3.92;;
43114;SDS011;28727;50.068;14.452;2023-04-24T09:42:55;4.68;;;3.60;;
43114;SDS011;28727;50.068;14.452;2023-04-24T09:45:35;6.45;;;3.53;;
43114;SDS011;28727;50.068;14.452;2023-04-24T09:48:08;5.63;;;4.18;;
43114;SDS011;28727;50.068;14.452;2023-04-24T09:50:45;7.78;;;4.13;;
43114;SDS011;28727;50.068;14.452;2023-04-24T09:53:19;5.80;;;4.32;;
43114;SDS011;28727;50.068;14.452;2023-04-24T09:55:56;5.47;;;4.10;;
43114;SDS011;28727;50.068;14.452;2023-04-24T09:58:34;5.25;;;3.78;;
43114;SDS011;28727;50.068;14.452;2023-04-24T10:01:07;6.43;;;4.05;;
43114;SDS011;28727;50.068;14.452;2023-04-24T10:03:39;6.45;;;3.38;;
43114;SDS011;28727;50.068;14.452;2023-04-24T10:06:16;4.85;;;3.53;;
43114;SDS011;28727;50.068;14.452;2023-04-24T10:08:47;6.68;;;4.15;;
43114;SDS011;28727;50.068;14.452;2023-04-24T10:11:22;3.88;;;2.60;;
43114;SDS011;28727;50.068;14.452;2023-04-24T10:13:54;5.45;;;3.20;;
43114;SDS011;28727;50.068;14.452;2023-04-24T10:16:27;7.85;;;3.58;;
43114;SDS011;28727;50.068;14.452;2023-04-24T10:19:00;7.68;;;2.88;;
43114;SDS011;28727;50.068;14.452;2023-04-24T10:21:34;3.78;;;2.55;;
43114;SDS011;28727;50.068;14.452;2023-04-24T10:24:09;4.13;;;2.55;;
43114;SDS011;28727;50.068;14.452;2023-04-24T10:26:48;2.47;;;1.85;;
43114;SDS011;28727;50.068;14.452;2023-04-24T10:29:21;2.70;;;1.55;;
43114;SDS011;28727;50.068;14.452;2023-04-24T10:31:53;4.35;;;1.70;;
43114;SDS011;28727;50.068;14.452;2023-04-24T10:34:25;2.25;;;1.40;;
43114;SDS011;28727;50.068;14.452;2023-04-24T10:36:57;2.92;;;1.67;;
43114;SDS011;28727;50.068;14.452;2023-04-24T10:39:29;4.45;;;1.70;;
43114;SDS011;28727;50.068;14.452;2023-04-24T10:42:17;3.45;;;1.70;;
43114;SDS011;28727;50.068;14.452;2023-04-24T10:44:49;2.13;;;1.33;;
43114;SDS011;28727;50.068;14.452;2023-04-24T10:47:21;3.25;;;1.60;;
43114;SDS011;28727;50.068;14.452;2023-04-24T10:49:53;4.68;;;1.27;;
43114;SDS011;28727;50.068;14.452;2023-04-24T10:52:30;3.65;;;1.30;;
43114;SDS011;28727;50.068;14.452;2023-04-24T10:55:15;2.58;;;1.42;;
43114;SDS011;28727;50.068;14.452;2023-04-24T10:58:01;3.55;;;1.27;;
43114;SDS011;28727;50.068;14.452;2023-04-24T11:00:38;3.05;;;1.52;;
43114;SDS011;28727;50.068;14.452;2023-04-24T11:03:27;1.75;;;1.10;;
43114;SDS011;28727;50.068;14.452;2023-04-24T11:06:02;1.92;;;1.52;;
43114;SDS011;28727;50.068;14.452;2023-04-24T11:08:39;2.95;;;0.90;;
43114;SDS011;28727;50.068;14.452;2023-04-24T11:11:14;2.70;;;0.93;;
43114;SDS011;28727;50.068;14.452;2023-04-24T11:16:29;3.55;;;1.30;;
43114;SDS011;28727;50.068;14.452;2023-04-24T11:19:09;2.65;;;1.20;;
43114;SDS011;28727;50.068;14.452;2023-04-24T11:21:46;3.15;;;1.20;;
43114;SDS011;28727;50.068;14.452;2023-04-24T11:27:12;2.75;;;1.52;;
43114;SDS011;28727;50.068;14.452;2023-04-24T11:32:18;2.85;;;1.00;;
43114;SDS011;28727;50.068;14.452;2023-04-24T11:35:15;1.92;;;0.90;;
43114;SDS011;28727;50.068;14.452;2023-04-24T11:37:53;3.40;;;1.10;;
43114;SDS011;28727;50.068;14.452;2023-04-24T11:40:28;2.30;;;0.95;;
43114;SDS011;28727;50.068;14.452;2023-04-24T11:43:00;2.50;;;1.23;;
43114;SDS011;28727;50.068;14.452;2023-04-24T11:45:32;2.88;;;1.25;;
43114;SDS011;28727;50.068;14.452;2023-04-24T11:48:04;1.77;;;1.17;;
43114;SDS011;28727;50.068;14.452;2023-04-24T11:50:35;1.90;;;0.95;;
43114;SDS011;28727;50.068;14.452;2023-04-24T11:53:07;4.53;;;1.50;;
43114;SDS011;28727;50.068;14.452;2023-04-24T11:55:40;2.90;;;1.15;;
43114;SDS011;28727;50.068;14.452;2023-04-24T11:58:12;4.22;;;1.00;;
43114;SDS011;28727;50.068;14.452;2023-04-24T12:00:43;1.25;;;0.82;;
43114;SDS011;28727;50.068;14.452;2023-04-24T12:03:17;2.90;;;1.15;;
43114;SDS011;28727;50.068;14.452;2023-04-24T12:05:49;2.33;;;1.00;;
43114;SDS011;28727;50.068;14.452;2023-04-24T12:08:26;3.05;;;0.90;;
43114;SDS011;28727;50.068;14.452;2023-04-24T12:11:00;3.88;;;1.35;;
43114;SDS011;28727;50.068;14.452;2023-04-24T12:13:33;2.78;;;0.95;;
43114;SDS011;28727;50.068;14.452;2023-04-24T12:16:06;3.45;;;1.35;;
43114;SDS011;28727;50.068;14.452;2023-04-24T12:18:42;3.90;;;1.20;;
43114;SDS011;28727;50.068;14.452;2023-04-24T12:21:19;5.57;;;1.48;;
43114;SDS011;28727;50.068;14.452;2023-04-24T12:23:56;3.60;;;2.03;;
43114;SDS011;28727;50.068;14.452;2023-04-24T12:29:01;2.13;;;0.70;;
43114;SDS011;28727;50.068;14.452;2023-04-24T12:34:19;2.65;;;1.20;;
43114;SDS011;28727;50.068;14.452;2023-04-24T12:36:52;3.28;;;0.80;;
43114;SDS011;28727;50.068;14.452;2023-04-24T12:39:24;2.05;;;1.17;;
43114;SDS011;28727;50.068;14.452;2023-04-24T12:41:58;3.10;;;0.90;;
43114;SDS011;28727;50.068;14.452;2023-04-24T12:44:34;3.25;;;0.95;;
43114;SDS011;28727;50.068;14.452;2023-04-24T12:47:06;2.45;;;1.00;;
43114;SDS011;28727;50.068;14.452;2023-04-24T12:49:38;3.80;;;0.82;;
43114;SDS011;28727;50.068;14.452;2023-04-24T12:52:10;2.78;;;1.00;;
43114;SDS011;28727;50.068;14.452;2023-04-24T12:54:42;2.83;;;1.15;;
43114;SDS011;28727;50.068;14.452;2023-04-24T12:57:14;3.72;;;1.20;;
43114;SDS011;28727;50.068;14.452;2023-04-24T12:59:46;1.52;;;1.00;;
43114;SDS011;28727;50.068;14.452;2023-04-24T13:02:18;4.30;;;1.33;;
43114;SDS011;28727;50.068;14.452;2023-04-24T13:04:50;4.18;;;1.10;;
43114;SDS011;28727;50.068;14.452;2023-04-24T13:07:23;3.20;;;1.40;;
43114;SDS011;28727;50.068;14.452;2023-04-24T13:09:55;3.58;;;1.58;;
43114;SDS011;28727;50.068;14.452;2023-04-24T13:12:28;3.78;;;1.48;;
43114;SDS011;28727;50.068;14.452;2023-04-24T13:15:00;3.00;;;1.30;;
43114;SDS011;28727;50.068;14.452;2023-04-24T13:17:31;4.30;;;1.38;;
43114;SDS011;28727;50.068;14.452;2023-04-24T13:20:04;4.13;;;1.80;;
43114;SDS011;28727;50.068;14.452;2023-04-24T13:22:36;2.15;;;1.10;;
43114;SDS011;28727;50.068;14.452;2023-04-24T13:25:08;3.15;;;1.20;;
43114;SDS011;28727;50.068;14.452;2023-04-24T13:27:41;2.17;;;1.17;;
43114;SDS011;28727;50.068;14.452;2023-04-24T13:30:13;4.63;;;1.17;;
43114;SDS011;28727;50.068;14.452;2023-04-24T13:32:45;2.20;;;1.02;;
43114;SDS011;28727;50.068;14.452;2023-04-24T13:35:17;2.60;;;1.25;;
43114;SDS011;28727;50.068;14.452;2023-04-24T13:37:49;1.52;;;1.00;;
43114;SDS011;28727;50.068;14.452;2023-04-24T13:40:20;3.22;;;1.60;;
43114;SDS011;28727;50.068;14.452;2023-04-24T13:42:52;1.73;;;1.27;;
43114;SDS011;28727;50.068;14.452;2023-04-24T13:45:24;2.35;;;1.45;;
43114;SDS011;28727;50.068;14.452;2023-04-24T13:47:56;2.33;;;1.42;;
43114;SDS011;28727;50.068;14.452;2023-04-24T13:50:28;2.60;;;1.40;;
43114;SDS011;28727;50.068;14.452;2023-04-24T13:53:01;2.33;;;1.40;;
43114;SDS011;28727;50.068;14.452;2023-04-24T13:55:33;2.42;;;1.30;;
43114;SDS011;28727;50.068;14.452;2023-04-24T13:58:05;3.45;;;1.73;;
43114;SDS011;28727;50.068;14.452;2023-04-24T14:00:37;1.88;;;1.30;;
43114;SDS011;28727;50.068;14.452;2023-04-24T14:03:12;2.97;;;1.40;;
43114;SDS011;28727;50.068;14.452;2023-04-24T14:05:45;1.88;;;1.05;;
43114;SDS011;28727;50.068;14.452;2023-04-24T14:08:16;4.50;;;1.20;;
43114;SDS011;28727;50.068;14.452;2023-04-24T14:10:48;3.28;;;1.00;;
43114;SDS011;28727;50.068;14.452;2023-04-24T14:13:22;2.20;;;1.00;;
43114;SDS011;28727;50.068;14.452;2023-04-24T14:15:53;1.48;;;0.80;;
43114;SDS011;28727;50.068;14.452;2023-04-24T14:18:26;2.75;;;1.20;;
43114;SDS011;28727;50.068;14.452;2023-04-24T14:20:58;4.88;;;0.90;;
43114;SDS011;28727;50.068;14.452;2023-04-24T14:23:30;2.63;;;0.90;;
43114;SDS011;28727;50.068;14.452;2023-04-24T14:26:02;3.50;;;1.38;;
43114;SDS011;28727;50.068;14.452;2023-04-24T14:28:34;2.97;;;1.00;;
43114;SDS011;28727;50.068;14.452;2023-04-24T14:31:06;3.90;;;1.00;;
43114;SDS011;28727;50.068;14.452;2023-04-24T14:33:37;2.38;;;1.00;;
43114;SDS011;28727;50.068;14.452;2023-04-24T14:36:09;2.83;;;1.50;;
43114;SDS011;28727;50.068;14.452;2023-04-24T14:38:41;2.35;;;1.10;;
43114;SDS011;28727;50.068;14.452;2023-04-24T14:41:13;4.80;;;0.90;;
43114;SDS011;28727;50.068;14.452;2023-04-24T14:46:20;3.08;;;0.90;;
43114;SDS011;28727;50.068;14.452;2023-04-24T14:48:51;2.17;;;1.00;;
43114;SDS011;28727;50.068;14.452;2023-04-24T14:51:23;1.30;;;0.90;;
43114;SDS011;28727;50.068;14.452;2023-04-24T14:53:55;2.42;;;1.10;;
43114;SDS011;28727;50.068;14.452;2023-04-24T14:56:29;1.55;;;0.90;;
43114;SDS011;28727;50.068;14.452;2023-04-24T14:59:02;2.15;;;0.80;;
43114;SDS011;28727;50.068;14.452;2023-04-24T15:01:33;7.80;;;2.42;;
43114;SDS011;28727;50.068;14.452;2023-04-24T15:04:06;2.40;;;1.00;;
43114;SDS011;28727;50.068;14.452;2023-04-24T15:06:38;6.22;;;1.10;;
43114;SDS011;28727;50.068;14.452;2023-04-24T15:09:09;2.75;;;1.13;;
43114;SDS011;28727;50.068;14.452;2023-04-24T15:11:41;2.13;;;0.90;;
43114;SDS011;28727;50.068;14.452;2023-04-24T15:14:13;1.40;;;0.90;;
43114;SDS011;28727;50.068;14.452;2023-04-24T15:16:46;1.27;;;0.90;;
43114;SDS011;28727;50.068;14.452;2023-04-24T15:19:18;1.10;;;0.75;;
43114;SDS011;28727;50.068;14.452;2023-04-24T15:21:49;1.70;;;0.90;;
43114;SDS011;28727;50.068;14.452;2023-04-24T15:24:21;2.63;;;1.23;;
43114;SDS011;28727;50.068;14.452;2023-04-24T15:26:53;2.47;;;1.00;;
43114;SDS011;28727;50.068;14.452;2023-04-24T15:29:28;2.22;;;0.82;;
43114;SDS011;28727;50.068;14.452;2023-04-24T15:32:00;2.35;;;1.30;;
43114;SDS011;28727;50.068;14.452;2023-04-24T15:34:33;1.48;;;0.90;;
43114;SDS011;28727;50.068;14.452;2023-04-24T15:37:05;2.45;;;1.30;;